Time;durP1;ratioP1;P1;durP2;ratioP2;P2;SDS_P1;SDS_P2;PMS_P1;PMS_P2;Temp;Humidity;BMP_temperature;BMP_pressure;BME280_temperature;BME280_humidity;BME280_pressure;Samples;Min_cycle;Max_cycle;Signal;HPM_P1;HPM_P2
2023/03/03 00:01:57;;;;;;;27.02;18.55;;;;;;;5.56;45.74;99290.44;5106537;28;20203;-71
2023/03/03 00:04:23;;;;;;;22.85;16.50;;;;;;;5.51;45.89;99282.69;5106509;28;20050;-72
2023/03/03 00:06:50;;;;;;;25.88;17.33;;;;;;;5.52;45.84;99296.72;5107204;28;20044;-72
2023/03/03 00:09:18;;;;;;;21.45;16.48;;;;;;;5.53;45.87;99286.13;5106429;28;20032;-71
2023/03/03 00:11:46;;;;;;;24.70;17.45;;;;;;;5.52;45.86;99286.19;5107710;28;20040;-72
2023/03/03 00:14:22;;;;;;;25.40;17.55;;;;;;;5.52;46.49;99289.69;5107415;28;20040;-72
2023/03/03 00:16:49;;;;;;;20.60;16.13;;;;;;;5.49;45.94;99284.53;5106237;28;20334;-73
2023/03/03 00:19:20;;;;;;;23.90;17.15;;;;;;;5.45;46.01;99283.78;5107589;28;20070;-73
2023/03/03 00:21:48;;;;;;;24.38;17.88;;;;;;;4.47;45.89;99117.38;5107527;28;20043;-73
2023/03/03 00:24:20;;;;;;;23.67;16.05;;;;;;;5.40;46.10;99285.72;5107210;28;20048;-72
2023/03/03 00:26:48;;;;;;;22.83;16.48;;;;;;;5.39;46.13;99284.00;5107086;28;20089;-72
2023/03/03 00:29:29;;;;;;;24.05;16.83;;;;;;;5.15;47.32;99244.59;5105958;28;20051;-73
2023/03/03 00:32:12;;;;;;;24.85;16.00;;;;;;;5.30;46.78;99280.84;5106239;28;20036;-72
2023/03/03 00:34:40;;;;;;;24.23;17.10;;;;;;;5.26;46.32;99280.09;5107271;28;20052;-72
2023/03/03 00:37:30;;;;;;;21.00;16.00;;;;;;;5.23;47.50;99280.19;5107041;28;20044;-73
2023/03/03 00:40:24;;;;;;;21.83;16.20;;;;;;;5.20;47.95;99268.94;5107239;28;20050;-73
2023/03/03 00:42:54;;;;;;;23.23;16.65;;;;;;;5.15;46.82;99276.13;5100390;28;20295;-73
2023/03/03 00:45:28;;;;;;;20.20;16.00;;;;;;;5.00;47.44;99253.84;5106577;28;20052;-72
2023/03/03 00:47:55;;;;;;;24.42;16.95;;;;;;;5.11;46.58;99268.34;5105951;28;20050;-72
2023/03/03 00:50:29;;;;;;;21.98;16.75;;;;;;;5.10;47.29;99277.13;5106438;28;20036;-72
2023/03/03 00:53:03;;;;;;;21.00;17.13;;;;;;;5.09;47.52;99270.16;5106288;28;20054;-73
2023/03/03 00:55:32;;;;;;;22.70;16.92;;;;;;;5.06;46.93;99267.63;5106385;28;20107;-72
2023/03/03 00:57:59;;;;;;;23.80;16.85;;;;;;;5.03;46.84;99267.75;5106969;28;20085;-72
2023/03/03 01:00:26;;;;;;;26.70;17.55;;;;;;;5.03;46.86;99264.25;5106591;28;20054;-73
2023/03/03 01:02:53;;;;;;;24.67;15.85;;;;;;;5.02;46.89;99262.53;5106032;28;20326;-73
2023/03/03 01:05:20;;;;;;;23.48;17.13;;;;;;;5.00;47.03;99266.97;5106168;28;20040;-73
2023/03/03 01:07:47;;;;;;;23.20;16.10;;;;;;;5.00;46.93;99259.09;5105924;28;20296;-73
2023/03/03 01:10:14;;;;;;;23.77;17.83;;;;;;;4.98;46.91;99260.94;5105821;28;20048;-72
2023/03/03 01:12:42;;;;;;;22.83;15.30;;;;;;;4.89;47.08;99243.72;5106372;28;20314;-72
2023/03/03 01:15:11;;;;;;;25.10;17.27;;;;;;;4.89;47.15;99251.59;5105344;28;20040;-73
2023/03/03 01:17:38;;;;;;;23.45;15.98;;;;;;;4.89;47.31;99253.31;5106537;28;20043;-72
2023/03/03 01:20:06;;;;;;;22.30;16.42;;;;;;;4.88;47.25;99251.59;5106553;28;20050;-72
2023/03/03 01:22:33;;;;;;;24.35;16.75;;;;;;;4.60;47.32;99231.53;5106211;28;20048;-72
2023/03/03 01:25:02;;;;;;;22.85;16.55;;;;;;;4.84;47.33;99244.75;5105998;28;20039;-72
2023/03/03 01:27:29;;;;;;;22.98;16.42;;;;;;;4.84;47.24;99244.75;5106137;28;20037;-72
2023/03/03 01:29:58;;;;;;;19.20;14.90;;;;;;;4.76;47.50;99235.34;5106224;28;20281;-71
2023/03/03 01:32:25;;;;;;;26.92;17.38;;;;;;;4.75;47.47;99243.28;5106281;28;20304;-72
2023/03/03 01:34:52;;;;;;;23.38;16.25;;;;;;;4.59;47.44;99210.56;5104918;28;20036;-72
2023/03/03 01:37:19;;;;;;;24.52;15.82;;;;;;;4.71;47.61;99241.66;5105908;28;20036;-71
2023/03/03 01:39:49;;;;;;;23.85;15.95;;;;;;;3.91;48.04;99154.16;5105747;28;20048;-71
2023/03/03 01:42:15;;;;;;;23.05;15.48;;;;;;;4.46;47.86;99212.75;5106266;28;20040;-72
2023/03/03 01:44:42;;;;;;;21.63;16.33;;;;;;;4.63;47.77;99254.19;5105622;28;20040;-71
2023/03/03 01:47:12;;;;;;;20.88;16.42;;;;;;;4.65;47.93;99252.38;5105644;28;20212;-71
2023/03/03 01:49:42;;;;;;;20.33;14.70;;;;;;;4.50;47.72;99227.47;5106250;28;20032;-71
2023/03/03 01:52:14;;;;;;;21.83;15.30;;;;;;;4.52;48.44;99246.66;5105963;28;20047;-71
2023/03/03 01:54:43;;;;;;;22.75;16.13;;;;;;;4.50;48.12;99251.09;5105486;28;20336;-72
2023/03/03 01:57:16;;;;;;;21.10;15.23;;;;;;;4.44;48.51;99246.06;5105539;28;20044;-72
2023/03/03 01:59:47;;;;;;;22.75;16.63;;;;;;;4.45;48.35;99232.88;5108173;28;20044;-72
2023/03/03 02:02:16;;;;;;;20.58;15.85;;;;;;;4.46;48.42;99247.72;5108799;28;20039;-72
2023/03/03 02:04:43;;;;;;;25.67;17.70;;;;;;;4.45;48.22;99250.41;5109897;28;20288;-72
2023/03/03 02:07:12;;;;;;;20.33;16.23;;;;;;;4.45;48.48;99251.25;5108701;28;20304;-72
2023/03/03 02:09:48;;;;;;;19.60;14.70;;;;;;;4.47;49.01;99246.81;5109831;28;20238;-72
2023/03/03 02:12:18;;;;;;;23.25;16.60;;;;;;;4.47;48.68;99243.31;5109768;28;20199;-72
2023/03/03 02:14:45;;;;;;;22.40;16.35;;;;;;;4.49;48.38;99254.63;5109500;28;20200;-72
2023/03/03 02:17:12;;;;;;;27.42;17.05;;;;;;;4.06;48.40;99168.53;5109981;28;20310;-72
2023/03/03 02:19:49;;;;;;;24.00;16.45;;;;;;;4.51;49.06;99234.44;5108503;28;20044;-72
2023/03/03 02:22:20;;;;;;;20.65;15.75;;;;;;;4.53;48.63;99242.28;5108442;28;20047;-73
2023/03/03 02:24:50;;;;;;;21.05;15.38;;;;;;;4.27;48.59;99188.00;5109818;28;20040;-72
2023/03/03 02:27:19;;;;;;;20.67;15.23;;;;;;;4.29;48.67;99201.94;5109340;28;20047;-73
2023/03/03 02:29:46;;;;;;;24.75;16.33;;;;;;;4.48;48.94;99235.41;5108594;28;20065;-73
2023/03/03 02:32:13;;;;;;;22.42;15.57;;;;;;;4.49;48.66;99231.88;5109752;28;20194;-73
2023/03/03 02:34:48;;;;;;;21.65;15.70;;;;;;;4.49;49.58;99231.00;5109372;28;20044;-73
2023/03/03 02:37:14;;;;;;;21.83;15.63;;;;;;;3.70;48.67;99118.13;5108252;28;20089;-73
2023/03/03 02:39:41;;;;;;;21.85;15.23;;;;;;;4.52;48.33;99225.66;5108052;28;20044;-73
2023/03/03 02:42:13;;;;;;;20.80;16.15;;;;;;;4.49;48.81;99228.38;5108985;28;20040;-73
2023/03/03 02:44:41;;;;;;;21.67;15.20;;;;;;;4.23;48.65;99189.03;5109556;28;20111;-73
2023/03/03 02:47:08;;;;;;;21.83;15.68;;;;;;;3.89;48.76;99116.63;5108098;28;20191;-73
2023/03/03 02:49:37;;;;;;;19.58;14.93;;;;;;;4.46;48.83;99216.22;5091201;28;20127;-73
2023/03/03 02:52:08;;;;;;;23.30;14.52;;;;;;;4.49;48.66;99221.38;5108254;28;20044;-73
2023/03/03 02:54:35;;;;;;;17.15;14.15;;;;;;;4.50;48.88;99216.97;5106872;28;20181;-71
2023/03/03 02:57:03;;;;;;;18.92;14.00;;;;;;;4.50;48.75;99214.34;5106555;28;20044;-71
2023/03/03 02:59:30;;;;;;;20.25;15.88;;;;;;;4.11;48.91;99157.00;5106550;28;20032;-71
2023/03/03 03:01:59;;;;;;;19.42;14.20;;;;;;;4.26;48.91;99183.66;5107348;28;20044;-70
2023/03/03 03:04:27;;;;;;;21.58;15.57;;;;;;;4.48;48.92;99218.81;5107277;28;20040;-71
2023/03/03 03:06:55;;;;;;;20.77;15.55;;;;;;;4.46;48.93;99218.00;5107276;28;20058;-71
2023/03/03 03:09:24;;;;;;;22.05;15.95;;;;;;;4.45;48.92;99240.75;5106746;28;20181;-72
2023/03/03 03:11:51;;;;;;;19.42;14.98;;;;;;;4.47;48.89;99228.44;5106819;28;20042;-72
2023/03/03 03:14:18;;;;;;;23.40;17.80;;;;;;;4.49;48.90;99215.28;5107167;28;20103;-72
2023/03/03 03:16:44;;;;;;;20.00;15.93;;;;;;;4.49;49.05;99215.28;5107570;28;20051;-72
2023/03/03 03:19:13;;;;;;;22.50;16.20;;;;;;;4.09;49.12;99148.31;5107224;28;20304;-71
2023/03/03 03:21:39;;;;;;;21.80;16.13;;;;;;;4.47;49.12;99209.22;5107049;28;20040;-71
2023/03/03 03:24:07;;;;;;;20.55;15.27;;;;;;;4.45;49.07;99211.88;5106962;28;20044;-71
2023/03/03 03:26:33;;;;;;;21.05;15.48;;;;;;;4.21;49.12;99177.72;5106990;28;20314;-71
2023/03/03 03:29:00;;;;;;;24.00;14.40;;;;;;;4.22;48.97;99172.41;5107117;28;20044;-71
2023/03/03 03:31:27;;;;;;;20.25;15.48;;;;;;;4.37;49.17;99192.91;5106920;28;20051;-72
2023/03/03 03:33:54;;;;;;;20.88;14.82;;;;;;;4.30;49.40;99208.91;5106811;28;20036;-71
2023/03/03 03:36:22;;;;;;;22.02;14.77;;;;;;;4.23;49.50;99204.75;5105982;28;20382;-71
2023/03/03 03:38:49;;;;;;;20.30;14.93;;;;;;;4.21;49.56;99211.81;5106721;28;20040;-71
2023/03/03 03:41:16;;;;;;;18.40;14.88;;;;;;;4.13;49.74;99204.16;5107315;28;20114;-71
2023/03/03 03:43:42;;;;;;;23.33;15.82;;;;;;;4.09;49.91;99200.78;5106174;28;20063;-71
2023/03/03 03:46:09;;;;;;;19.13;15.27;;;;;;;4.08;49.83;99200.81;5106285;28;20040;-72
2023/03/03 03:48:36;;;;;;;19.98;13.43;;;;;;;3.91;49.76;99248.53;5107098;28;20109;-72
2023/03/03 03:51:04;;;;;;;21.65;16.92;;;;;;;3.84;49.70;99166.59;5106893;28;20036;-73
2023/03/03 03:53:32;;;;;;;21.35;15.90;;;;;;;3.33;49.70;99087.81;5061542;28;1257292;-73
2023/03/03 03:55:59;;;;;;;20.13;14.13;;;;;;;4.05;49.82;99199.16;5106988;28;20081;-72
2023/03/03 03:58:26;;;;;;;18.88;14.25;;;;;;;4.03;49.74;99208.84;5107107;28;20200;-72
2023/03/03 04:00:53;;;;;;;17.45;13.10;;;;;;;4.01;49.74;99208.03;5107725;28;20067;-73
2023/03/03 04:03:20;;;;;;;17.23;12.90;;;;;;;3.66;49.66;99148.81;5107905;28;20048;-73
2023/03/03 04:05:47;;;;;;;15.05;12.05;;;;;;;3.98;49.79;99204.63;5106531;28;20060;-73
2023/03/03 04:08:14;;;;;;;19.60;13.25;;;;;;;3.73;49.68;99170.44;5107176;28;20059;-73
2023/03/03 04:10:42;;;;;;;18.92;13.07;;;;;;;3.94;49.72;99216.13;5107252;28;20044;-73
2023/03/03 04:13:09;;;;;;;18.70;14.02;;;;;;;3.12;49.80;99075.34;5107167;28;20032;-73
2023/03/03 04:15:36;;;;;;;18.73;13.10;;;;;;;3.78;49.82;99195.63;5107431;28;20062;-74
2023/03/03 04:18:04;;;;;;;20.67;14.02;;;;;;;3.71;49.86;99188.84;5106336;28;20047;-73
2023/03/03 04:20:31;;;;;;;19.77;14.25;;;;;;;3.89;49.93;99223.28;5107230;28;20115;-74
2023/03/03 04:22:57;;;;;;;17.65;12.93;;;;;;;3.90;49.90;99225.00;5106420;28;20119;-73
2023/03/03 04:25:27;;;;;;;17.58;14.00;;;;;;;3.86;50.07;99226.84;5106055;28;20048;-73
2023/03/03 04:27:55;;;;;;;18.08;14.30;;;;;;;3.83;50.21;99229.56;5106311;28;20078;-73
2023/03/03 04:30:22;;;;;;;20.38;14.63;;;;;;;3.84;50.06;99223.41;5089358;28;20049;-73
2023/03/03 04:32:49;;;;;;;17.30;13.80;;;;;;;3.79;50.05;99234.03;5106775;28;20062;-73
2023/03/03 04:35:16;;;;;;;20.70;13.63;;;;;;;3.77;50.23;99232.34;5107284;28;20067;-73
2023/03/03 04:37:43;;;;;;;19.38;14.88;;;;;;;3.74;50.20;99233.31;5105805;28;20035;-73
2023/03/03 04:40:10;;;;;;;19.35;13.30;;;;;;;3.72;50.27;99235.13;5106631;28;20303;-73
2023/03/03 04:42:37;;;;;;;20.77;14.18;;;;;;;3.72;50.44;99226.41;5106544;28;20296;-73
2023/03/03 04:45:07;;;;;;;15.40;13.35;;;;;;;3.65;50.49;99230.94;5106802;28;20287;-73
2023/03/03 04:47:33;;;;;;;21.85;15.38;;;;;;;3.69;50.38;99229.09;5106721;28;20048;-73
2023/03/03 04:50:00;;;;;;;19.70;14.10;;;;;;;3.67;50.45;99225.66;5106944;28;20040;-73
2023/03/03 04:52:27;;;;;;;19.67;14.30;;;;;;;3.66;50.35;99226.56;5106975;28;20062;-73
2023/03/03 04:54:54;;;;;;;19.25;14.55;;;;;;;3.66;50.36;99224.81;5106223;28;20070;-73
2023/03/03 04:57:21;;;;;;;21.20;14.90;;;;;;;3.65;50.41;99222.22;5106296;28;20051;-73
2023/03/03 04:59:48;;;;;;;19.23;13.98;;;;;;;3.66;50.29;99229.19;5106238;28;20032;-73
2023/03/03 05:02:17;;;;;;;19.35;15.38;;;;;;;3.64;50.50;99233.63;5106440;28;20280;-73
2023/03/03 05:04:43;;;;;;;18.00;14.27;;;;;;;3.63;50.52;99232.75;5106503;28;20070;-73
2023/03/03 05:07:10;;;;;;;18.63;14.00;;;;;;;3.61;50.71;99233.72;5105948;28;20230;-73
2023/03/03 05:09:37;;;;;;;18.65;14.15;;;;;;;3.01;50.42;99145.50;5106264;28;20067;-73
2023/03/03 05:12:04;;;;;;;23.30;13.20;;;;;;;3.55;50.84;99232.13;5106053;28;20048;-72
2023/03/03 05:14:32;;;;;;;20.17;14.15;;;;;;;2.87;50.74;99140.63;5106590;28;20051;-73
2023/03/03 05:16:59;;;;;;;23.33;15.70;;;;;;;3.52;50.90;99238.31;5105146;28;20287;-73
2023/03/03 05:19:28;;;;;;;23.77;15.45;;;;;;;3.52;50.94;99234.84;5105434;28;20259;-72
2023/03/03 05:21:56;;;;;;;23.30;17.13;;;;;;;3.49;50.63;99232.31;5106279;28;20044;-73
2023/03/03 05:24:23;;;;;;;28.15;18.90;;;;;;;2.65;50.62;99102.88;5104865;28;20101;-73
2023/03/03 05:26:50;;;;;;;26.92;18.70;;;;;;;3.42;50.73;99234.22;5105081;28;20204;-73
2023/03/03 05:29:17;;;;;;;30.25;19.95;;;;;;;3.39;50.63;99236.94;5106078;28;20188;-72
2023/03/03 05:31:44;;;;;;;30.80;20.05;;;;;;;3.38;50.68;99248.31;5106295;28;20043;-73
2023/03/03 05:34:10;;;;;;;31.35;21.48;;;;;;;3.13;50.75;99208.00;5105949;28;20040;-73
2023/03/03 05:36:39;;;;;;;29.88;21.27;;;;;;;3.06;50.91;99214.28;5106104;28;20235;-73
2023/03/03 05:39:06;;;;;;;38.42;25.17;;;;;;;3.26;50.74;99258.28;5105710;28;20036;-73
2023/03/03 05:41:35;;;;;;;31.90;22.40;;;;;;;3.01;50.88;99213.56;5104834;28;20044;-73
2023/03/03 05:44:02;;;;;;;30.90;22.77;;;;;;;3.31;50.81;99262.50;5106287;28;20082;-72
2023/03/03 05:46:29;;;;;;;36.88;24.00;;;;;;;3.31;50.88;99266.88;5104765;28;20040;-73
2023/03/03 05:48:56;;;;;;;40.50;26.23;;;;;;;3.08;50.74;99244.78;5105851;28;20058;-72
2023/03/03 05:51:23;;;;;;;36.67;24.80;;;;;;;2.94;51.04;99215.47;5105829;28;20036;-73
2023/03/03 05:53:51;;;;;;;38.60;27.10;;;;;;;3.27;51.09;99273.94;5104558;28;20211;-73
2023/03/03 05:56:18;;;;;;;37.33;27.92;;;;;;;3.30;51.11;99275.63;5106055;28;20059;-73
2023/03/03 05:58:45;;;;;;;36.45;27.02;;;;;;;3.33;50.91;99280.78;5106034;28;20191;-73
2023/03/03 06:01:11;;;;;;;36.35;26.98;;;;;;;3.36;51.07;99284.19;5105552;28;20230;-73
2023/03/03 06:03:38;;;;;;;41.85;29.30;;;;;;;3.37;51.06;99285.91;5104178;28;20300;-72
2023/03/03 06:06:07;;;;;;;37.45;25.85;;;;;;;2.60;51.07;99164.94;5105807;28;20097;-72
2023/03/03 06:08:35;;;;;;;39.13;26.67;;;;;;;3.35;51.15;99292.94;5105866;28;20032;-72
2023/03/03 06:11:03;;;;;;;39.75;25.73;;;;;;;3.34;51.04;99293.84;5105965;28;20061;-73
2023/03/03 06:13:30;;;;;;;43.50;29.65;;;;;;;3.34;51.13;99288.59;5105048;28;20040;-72
2023/03/03 06:15:57;;;;;;;44.10;30.05;;;;;;;2.80;51.10;99192.28;5105370;28;20085;-73
2023/03/03 06:18:23;;;;;;;41.65;29.58;;;;;;;3.36;51.12;99286.81;5104466;28;20044;-72
2023/03/03 06:20:52;;;;;;;40.70;28.90;;;;;;;3.40;51.13;99291.06;5105401;28;20042;-72
2023/03/03 06:23:19;;;;;;;40.63;28.10;;;;;;;3.47;51.23;99310.94;5104918;28;20062;-73
2023/03/03 06:25:46;;;;;;;42.38;31.27;;;;;;;3.43;51.10;99298.81;5105562;28;20078;-73
2023/03/03 06:28:14;;;;;;;41.63;29.70;;;;;;;3.56;51.25;99306.34;5105306;28;20040;-73
2023/03/03 06:30:41;;;;;;;42.13;29.77;;;;;;;3.24;51.19;99260.06;5105423;28;20110;-73
2023/03/03 06:33:08;;;;;;;43.88;31.30;;;;;;;3.68;51.02;99304.25;5104285;28;20054;-71
2023/03/03 06:35:35;;;;;;;44.97;32.42;;;;;;;3.75;50.92;99300.56;5105378;28;20051;-73
2023/03/03 06:38:02;;;;;;;45.35;31.15;;;;;;;3.81;50.92;99300.38;5104156;28;20088;-71
2023/03/03 06:40:29;;;;;;;45.03;32.25;;;;;;;3.87;50.77;99309.84;5104155;28;20322;-73
2023/03/03 06:42:56;;;;;;;43.70;30.80;;;;;;;3.29;50.92;99227.63;5104209;28;20123;-72
2023/03/03 06:45:24;;;;;;;45.75;33.05;;;;;;;2.51;50.68;99075.31;5107133;28;20040;-72
2023/03/03 06:47:50;;;;;;;48.65;34.60;;;;;;;3.99;50.62;99319.09;5108848;28;20044;-73
2023/03/03 06:50:20;;;;;;;45.92;33.40;;;;;;;4.00;50.75;99319.06;5108573;28;20035;-72
2023/03/03 06:52:47;;;;;;;52.63;36.92;;;;;;;4.01;50.64;99318.16;5108282;28;20032;-73
2023/03/03 06:55:19;;;;;;;46.40;31.48;;;;;;;4.00;50.96;99315.59;5107556;28;20332;-73
2023/03/03 06:57:46;;;;;;;51.40;35.90;;;;;;;4.06;50.63;99316.25;5108899;28;20044;-73
2023/03/03 07:00:17;;;;;;;46.50;33.67;;;;;;;3.96;50.85;99298.22;5108523;28;20036;-73
2023/03/03 07:02:45;;;;;;;49.75;33.95;;;;;;;4.09;50.67;99321.41;5108270;28;20051;-73
2023/03/03 07:05:15;;;;;;;48.10;34.05;;;;;;;3.94;50.82;99282.53;5108630;28;20039;-74
2023/03/03 07:07:42;;;;;;;46.67;33.72;;;;;;;4.32;50.24;99314.66;5108354;28;20050;-71
2023/03/03 07:10:25;;;;;;;46.15;32.45;;;;;;;4.53;51.03;99319.25;5107517;28;20047;-72
2023/03/03 07:12:52;;;;;;;44.55;31.90;;;;;;;4.73;49.70;99316.84;5108720;28;20054;-73
2023/03/03 07:15:22;;;;;;;47.58;33.08;;;;;;;4.72;49.34;99285.38;5107162;28;20044;-73
2023/03/03 07:17:56;;;;;;;48.63;36.05;;;;;;;4.77;49.20;99251.97;5090488;28;20036;-73
2023/03/03 07:20:28;;;;;;;45.03;32.15;;;;;;;5.33;48.65;99313.13;5108021;28;20245;-73
2023/03/03 07:22:55;;;;;;;47.33;34.53;;;;;;;4.70;48.56;99183.06;5108019;28;20043;-74
2023/03/03 07:25:30;;;;;;;54.15;34.50;;;;;;;5.60;48.57;99319.19;5106917;28;20200;-74
2023/03/03 07:28:01;;;;;;;49.90;32.72;;;;;;;5.76;48.13;99330.00;5107813;28;20052;-73
2023/03/03 07:30:30;;;;;;;47.42;33.92;;;;;;;5.87;47.90;99334.88;5107906;28;20062;-74
2023/03/03 07:32:59;;;;;;;46.42;33.85;;;;;;;5.94;47.79;99341.63;5090203;28;20044;-72
2023/03/03 07:35:38;;;;;;;43.22;32.17;;;;;;;5.92;47.74;99336.44;5107478;28;20058;-72
2023/03/03 07:38:17;;;;;;;46.65;34.10;;;;;;;5.96;47.97;99342.44;5108027;28;20079;-73
2023/03/03 07:40:49;;;;;;;45.75;33.30;;;;;;;6.09;47.66;99352.44;5107492;28;20027;-72
2023/03/03 07:43:35;;;;;;;46.92;34.85;;;;;;;6.26;47.34;99356.22;5107813;28;20151;-74
2023/03/03 07:46:21;;;;;;;47.53;33.10;;;;;;;6.32;47.19;99356.84;5106785;28;20035;-74
2023/03/03 07:48:51;;;;;;;45.60;32.65;;;;;;;6.35;47.38;99361.16;5107779;28;20051;-73
2023/03/03 07:51:24;;;;;;;48.00;34.28;;;;;;;6.40;47.23;99364.47;5108022;28;20036;-73
2023/03/03 07:53:51;;;;;;;54.17;33.95;;;;;;;6.48;47.33;99358.91;5106001;28;20052;-73
2023/03/03 07:56:28;;;;;;;44.92;32.83;;;;;;;6.45;47.25;99330.06;5104764;28;20134;-73
2023/03/03 07:58:56;;;;;;;48.70;33.72;;;;;;;6.87;47.09;99357.38;5106878;28;20063;-73
2023/03/03 08:01:38;;;;;;;47.83;35.72;;;;;;;7.12;46.75;99354.59;5106613;28;20119;-74
2023/03/03 08:04:16;;;;;;;45.72;35.75;;;;;;;7.41;46.14;99347.28;5107080;28;20035;-74
2023/03/03 08:06:49;;;;;;;45.08;33.38;;;;;;;7.63;45.92;99341.03;5105704;28;20043;-74
2023/03/03 08:09:44;;;;;;;46.17;34.17;;;;;;;7.75;45.05;99310.63;5107014;28;20085;-74
2023/03/03 08:12:46;;;;;;;47.70;36.20;;;;;;;7.97;44.21;99310.50;5106801;28;20089;-74
2023/03/03 08:15:22;;;;;;;41.95;32.92;;;;;;;8.37;44.36;99343.88;5098073;28;20058;-75
2023/03/03 08:17:50;;;;;;;42.90;31.60;;;;;;;8.38;44.64;99302.47;5106611;28;20226;-74
2023/03/03 08:20:43;;;;;;;38.88;31.33;;;;;;;8.55;43.00;99286.69;5105361;28;20044;-74
2023/03/03 08:23:11;;;;;;;40.38;30.52;;;;;;;8.87;43.94;99322.13;5101484;28;20242;-74
2023/03/03 08:25:38;;;;;;;36.15;29.58;;;;;;;8.73;43.73;99301.66;5106555;28;20076;-75
2023/03/03 08:28:05;;;;;;;39.67;31.20;;;;;;;9.04;43.79;99330.06;5106208;28;20046;-75
2023/03/03 08:30:32;;;;;;;41.97;31.05;;;;;;;8.45;43.52;99193.81;5105992;28;20058;-75
2023/03/03 08:33:00;;;;;;;35.53;28.35;;;;;;;9.47;43.36;99320.06;5088744;28;20326;-75
2023/03/03 08:35:26;;;;;;;37.75;30.60;;;;;;;9.67;42.83;99327.81;5106630;28;20107;-75
2023/03/03 08:37:54;;;;;;;35.72;28.38;;;;;;;9.73;42.61;99327.50;5106349;28;20040;-75
2023/03/03 08:40:21;;;;;;;41.67;31.15;;;;;;;9.27;42.48;99247.84;5105359;28;20303;-75
2023/03/03 08:42:48;;;;;;;36.17;29.83;;;;;;;9.85;42.39;99337.44;5106141;28;20111;-74
2023/03/03 08:45:16;;;;;;;37.03;29.42;;;;;;;9.84;42.47;99332.22;5106411;28;20209;-75
2023/03/03 08:47:43;;;;;;;37.15;29.73;;;;;;;9.72;42.36;99317.84;5105194;28;20093;-74
2023/03/03 08:50:11;;;;;;;35.20;28.33;;;;;;;9.35;42.36;99228.94;5104930;28;20070;-75
2023/03/03 08:52:38;;;;;;;38.55;28.83;;;;;;;10.07;42.06;99331.88;5106728;28;20052;-75
2023/03/03 08:55:07;;;;;;;36.63;28.85;;;;;;;10.14;41.72;99335.91;5105606;28;20095;-75
2023/03/03 08:57:34;;;;;;;39.13;31.42;;;;;;;10.15;41.92;99299.69;5104719;28;20378;-75
2023/03/03 09:00:02;;;;;;;36.70;28.88;;;;;;;10.06;41.66;99239.28;5106323;28;20114;-74
2023/03/03 09:02:30;;;;;;;38.67;29.35;;;;;;;10.93;41.41;99332.47;5106169;28;20120;-74
2023/03/03 09:04:57;;;;;;;39.20;30.30;;;;;;;11.23;40.98;99328.91;5104911;28;20043;-75
2023/03/03 09:07:24;;;;;;;32.88;26.92;;;;;;;11.44;40.78;99329.44;5104318;28;20207;-74
2023/03/03 09:09:50;;;;;;;33.83;28.02;;;;;;;11.60;40.56;99318.78;5105871;28;20040;-74
2023/03/03 09:12:22;;;;;;;37.00;30.05;;;;;;;11.88;39.60;99325.94;5105063;28;20040;-75
2023/03/03 09:14:51;;;;;;;37.03;29.05;;;;;;;12.06;39.63;99338.09;5105191;28;20040;-75
2023/03/03 09:17:26;;;;;;;35.50;27.42;;;;;;;12.17;38.24;99337.47;5105679;28;20040;-75
2023/03/03 09:19:54;;;;;;;;;;;;;;;12.26;36.58;99339.56;5104843;28;20040;-74
2023/03/03 09:22:24;;;;;;;33.35;26.60;;;;;;;12.36;39.01;99350.47;5105131;28;20084;-74
2023/03/03 09:24:54;;;;;;;33.13;26.35;;;;;;;12.43;38.28;99347.34;5105240;28;20050;-74
2023/03/03 09:27:28;;;;;;;38.30;28.27;;;;;;;12.40;37.47;99355.50;5105123;28;20059;-74
2023/03/03 09:29:55;;;;;;;38.55;29.13;;;;;;;12.50;38.83;99356.63;5106301;28;20154;-74
2023/03/03 09:32:31;;;;;;;37.97;28.85;;;;;;;12.58;37.68;99360.63;5104028;28;20288;-75
2023/03/03 09:34:59;;;;;;;32.05;26.55;;;;;;;11.66;38.76;99195.44;5104947;28;20039;-75
2023/03/03 09:37:31;;;;;;;32.03;27.25;;;;;;;12.46;38.39;99336.50;5105306;28;20044;-75
2023/03/03 09:39:59;;;;;;;36.85;27.85;;;;;;;12.28;38.60;99305.78;5104645;28;20066;-75
2023/03/03 09:42:51;;;;;;;35.97;28.33;;;;;;;12.92;36.34;99367.28;5104710;28;20263;-75
2023/03/03 09:45:40;;;;;;;35.20;28.17;;;;;;;13.09;35.74;99361.72;5104962;28;20043;-75
2023/03/03 09:48:42;;;;;;;36.85;29.02;;;;;;;13.22;35.53;99351.13;5093458;28;20048;-75
2023/03/03 09:51:20;;;;;;;37.95;28.80;;;;;;;13.21;37.32;99352.09;5105110;28;20294;-75
2023/03/03 09:54:01;;;;;;;35.95;27.65;;;;;;;13.44;35.79;99357.63;5104077;28;20173;-75
2023/03/03 09:56:35;;;;;;;33.28;26.50;;;;;;;13.53;36.37;99345.50;5103667;28;20040;-75
2023/03/03 09:59:25;;;;;;;34.58;27.15;;;;;;;13.62;34.85;99352.03;5104204;28;20044;-76
2023/03/03 10:02:04;;;;;;;33.53;26.63;;;;;;;13.58;35.57;99353.19;5104043;28;20248;-74
2023/03/03 10:05:04;;;;;;;35.25;26.30;;;;;;;13.42;34.74;99324.94;5104011;28;20040;-75
2023/03/03 10:07:40;;;;;;;30.02;25.73;;;;;;;13.58;35.88;99346.03;5103572;28;20114;-75
2023/03/03 10:10:21;;;;;;;32.17;27.48;;;;;;;13.66;34.36;99346.38;5104160;28;20198;-75
2023/03/03 10:12:58;;;;;;;35.17;28.00;;;;;;;13.50;36.43;99315.56;5104972;28;20036;-75
2023/03/03 10:15:38;;;;;;;30.73;26.30;;;;;;;13.79;34.63;99349.91;5103624;28;20188;-75
2023/03/03 10:18:17;;;;;;;36.25;28.10;;;;;;;13.77;34.90;99325.19;5104463;28;20040;-75
2023/03/03 10:20:59;;;;;;;34.53;27.73;;;;;;;13.77;34.47;99303.03;5107625;28;20063;-74
2023/03/03 10:23:44;;;;;;;31.92;27.30;;;;;;;14.02;34.31;99332.34;5108217;28;20039;-74
2023/03/03 10:26:21;;;;;;;31.98;26.92;;;;;;;14.04;34.31;99314.44;5106927;28;20048;-75
2023/03/03 10:29:02;;;;;;;33.70;27.20;;;;;;;14.20;33.70;99322.19;5090646;28;20119;-74
2023/03/03 10:31:45;;;;;;;33.25;25.75;;;;;;;14.28;33.74;99314.50;5107887;28;20078;-75
2023/03/03 10:34:29;;;;;;;37.35;29.33;;;;;;;13.16;33.59;99113.75;5073851;28;20050;-75
2023/03/03 10:37:03;;;;;;;32.97;27.23;;;;;;;14.03;34.42;99256.78;5106912;28;20044;-75
2023/03/03 10:39:49;;;;;;;35.20;27.73;;;;;;;14.39;33.23;99306.59;5108532;28;20039;-75
2023/03/03 10:42:37;;;;;;;35.63;26.17;;;;;;;14.24;32.98;99275.72;5106786;28;20044;-75
2023/03/03 10:45:27;;;;;;;32.58;25.88;;;;;;;14.43;32.95;99300.09;5106968;28;20048;-75
2023/03/03 10:48:12;;;;;;;32.13;24.58;;;;;;;14.40;32.07;99286.97;5106552;28;20040;-76
2023/03/03 10:50:51;;;;;;;30.42;24.77;;;;;;;14.34;32.71;99276.75;5107734;28;20112;-75
2023/03/03 10:53:27;;;;;;;31.10;25.60;;;;;;;14.40;33.74;99276.31;5107189;28;20064;-75
2023/03/03 10:56:08;;;;;;;31.15;23.52;;;;;;;14.35;33.17;99258.94;5107696;28;20032;-75
2023/03/03 10:58:47;;;;;;;27.92;23.88;;;;;;;14.45;32.33;99279.50;5106958;28;20047;-75
2023/03/03 11:01:24;;;;;;;29.05;23.38;;;;;;;14.51;33.14;99272.03;5106197;28;20028;-75
2023/03/03 11:04:25;;;;;;;31.85;24.55;;;;;;;14.62;31.96;99274.81;5105773;28;20323;-75
2023/03/03 11:06:59;;;;;;;29.58;24.27;;;;;;;14.21;33.15;99203.13;5106544;28;20127;-75
2023/03/03 11:09:39;;;;;;;29.63;24.13;;;;;;;14.44;32.23;99226.28;5107040;28;20032;-75
2023/03/03 11:12:16;;;;;;;28.52;24.33;;;;;;;14.76;32.35;99274.66;5106659;28;20304;-74
2023/03/03 11:14:48;;;;;;;27.50;22.70;;;;;;;14.73;33.46;99282.91;5107472;28;20111;-75
2023/03/03 11:17:24;;;;;;;29.90;23.67;;;;;;;14.78;32.03;99271.88;5090723;28;20051;-75
2023/03/03 11:20:03;;;;;;;28.80;23.52;;;;;;;14.73;31.59;99245.53;5106651;28;20078;-74
2023/03/03 11:22:46;;;;;;;29.70;23.63;;;;;;;14.96;31.44;99282.03;5107430;28;20036;-75
2023/03/03 11:25:29;;;;;;;27.17;22.95;;;;;;;14.97;31.84;99273.06;5106447;28;20155;-75
2023/03/03 11:28:07;;;;;;;25.05;21.30;;;;;;;15.08;31.41;99269.59;5106109;28;20288;-75
2023/03/03 11:30:49;;;;;;;28.38;22.70;;;;;;;15.14;31.81;99270.97;5106875;28;20070;-76
2023/03/03 11:33:21;;;;;;;24.95;20.88;;;;;;;15.19;32.68;99263.47;5106595;28;20054;-75
2023/03/03 11:36:00;;;;;;;26.80;21.25;;;;;;;15.19;31.69;99261.63;5107173;28;20040;-75
2023/03/03 11:38:44;;;;;;;28.27;22.13;;;;;;;15.11;30.91;99236.50;5106180;28;20077;-75
2023/03/03 11:41:15;;;;;;;;;;;;;;;15.22;30.55;99257.88;5107656;28;20062;-76
2023/03/03 11:43:46;;;;;;;27.55;21.02;;;;;;;15.23;32.70;99254.25;5106249;28;19923;-76